sensor_id;sensor_type;location;lat;lon;timestamp;P1;durP1;ratioP1;P2;durP2;ratioP2
16039;SDS011;8124;48.634;8.120;2022-07-26T00:03:00;44.20;;;39.67;;
16039;SDS011;8124;48.634;8.120;2022-07-26T00:08:04;44.05;;;39.55;;
16039;SDS011;8124;48.634;8.120;2022-07-26T00:13:16;44.35;;;39.60;;
16039;SDS011;8124;48.634;8.120;2022-07-26T00:18:20;43.92;;;39.33;;
16039;SDS011;8124;48.634;8.120;2022-07-26T00:23:23;43.63;;;39.13;;
16039;SDS011;8124;48.634;8.120;2022-07-26T00:28:28;43.92;;;39.33;;
16039;SDS011;8124;48.634;8.120;2022-07-26T00:33:30;44.15;;;39.47;;
16039;SDS011;8124;48.634;8.120;2022-07-26T00:38:34;44.03;;;39.22;;
16039;SDS011;8124;48.634;8.120;2022-07-26T00:43:38;43.75;;;39.25;;
16039;SDS011;8124;48.634;8.120;2022-07-26T00:48:55;43.90;;;39.40;;
16039;SDS011;8124;48.634;8.120;2022-07-26T00:53:58;43.53;;;39.03;;
16039;SDS011;8124;48.634;8.120;2022-07-26T00:59:06;44.15;;;39.65;;
16039;SDS011;8124;48.634;8.120;2022-07-26T01:04:10;43.53;;;39.10;;
16039;SDS011;8124;48.634;8.120;2022-07-26T01:09:13;43.72;;;39.25;;
16039;SDS011;8124;48.634;8.120;2022-07-26T01:14:19;43.47;;;38.97;;
16039;SDS011;8124;48.634;8.120;2022-07-26T01:19:23;43.75;;;39.30;;
16039;SDS011;8124;48.634;8.120;2022-07-26T01:24:27;43.53;;;39.13;;
16039;SDS011;8124;48.634;8.120;2022-07-26T01:29:30;43.45;;;38.97;;
16039;SDS011;8124;48.634;8.120;2022-07-26T01:34:36;43.63;;;39.03;;
16039;SDS011;8124;48.634;8.120;2022-07-26T01:39:40;43.38;;;38.90;;
16039;SDS011;8124;48.634;8.120;2022-07-26T01:44:46;43.33;;;38.90;;
16039;SDS011;8124;48.634;8.120;2022-07-26T01:49:49;43.83;;;39.22;;
16039;SDS011;8124;48.634;8.120;2022-07-26T01:54:53;43.35;;;38.75;;
16039;SDS011;8124;48.634;8.120;2022-07-26T01:59:56;43.65;;;39.20;;
16039;SDS011;8124;48.634;8.120;2022-07-26T02:04:59;43.63;;;39.13;;
16039;SDS011;8124;48.634;8.120;2022-07-26T02:10:04;43.45;;;39.05;;
16039;SDS011;8124;48.634;8.120;2022-07-26T02:15:08;44.10;;;39.60;;
16039;SDS011;8124;48.634;8.120;2022-07-26T02:20:12;43.72;;;39.13;;
16039;SDS011;8124;48.634;8.120;2022-07-26T02:25:18;43.88;;;39.38;;
16039;SDS011;8124;48.634;8.120;2022-07-26T02:30:22;43.80;;;39.15;;
16039;SDS011;8124;48.634;8.120;2022-07-26T02:35:25;43.25;;;38.65;;
16039;SDS011;8124;48.634;8.120;2022-07-26T02:40:30;43.85;;;39.25;;
16039;SDS011;8124;48.634;8.120;2022-07-26T02:45:33;43.85;;;39.15;;
16039;SDS011;8124;48.634;8.120;2022-07-26T02:50:36;43.65;;;39.15;;
16039;SDS011;8124;48.634;8.120;2022-07-26T02:55:42;43.22;;;38.72;;
16039;SDS011;8124;48.634;8.120;2022-07-26T03:00:45;44.35;;;39.22;;
16039;SDS011;8124;48.634;8.120;2022-07-26T03:05:48;43.03;;;38.63;;
16039;SDS011;8124;48.634;8.120;2022-07-26T03:10:52;43.63;;;39.13;;
16039;SDS011;8124;48.634;8.120;2022-07-26T03:15:55;43.47;;;39.05;;
16039;SDS011;8124;48.634;8.120;2022-07-26T03:20:58;43.58;;;39.00;;
16039;SDS011;8124;48.634;8.120;2022-07-26T03:26:03;43.90;;;39.13;;
16039;SDS011;8124;48.634;8.120;2022-07-26T03:31:06;43.45;;;38.95;;
16039;SDS011;8124;48.634;8.120;2022-07-26T03:36:09;43.70;;;39.20;;
16039;SDS011;8124;48.634;8.120;2022-07-26T03:41:17;43.80;;;39.05;;
16039;SDS011;8124;48.634;8.120;2022-07-26T03:46:21;43.20;;;38.80;;
16039;SDS011;8124;48.634;8.120;2022-07-26T03:51:24;43.33;;;38.83;;
16039;SDS011;8124;48.634;8.120;2022-07-26T03:56:28;43.67;;;39.08;;
16039;SDS011;8124;48.634;8.120;2022-07-26T04:01:33;43.75;;;39.15;;
16039;SDS011;8124;48.634;8.120;2022-07-26T04:06:37;44.08;;;39.15;;
16039;SDS011;8124;48.634;8.120;2022-07-26T04:11:42;43.40;;;38.90;;
16039;SDS011;8124;48.634;8.120;2022-07-26T04:16:46;43.42;;;38.92;;
16039;SDS011;8124;48.634;8.120;2022-07-26T04:21:49;43.33;;;38.80;;
16039;SDS011;8124;48.634;8.120;2022-07-26T04:26:53;45.17;;;38.92;;
16039;SDS011;8124;48.634;8.120;2022-07-26T04:31:56;43.35;;;38.70;;
16039;SDS011;8124;48.634;8.120;2022-07-26T04:36:59;43.80;;;39.08;;
16039;SDS011;8124;48.634;8.120;2022-07-26T04:42:04;43.78;;;38.80;;
16039;SDS011;8124;48.634;8.120;2022-07-26T04:47:07;43.75;;;39.15;;
16039;SDS011;8124;48.634;8.120;2022-07-26T04:52:10;44.03;;;39.42;;
16039;SDS011;8124;48.634;8.120;2022-07-26T04:57:14;46.38;;;39.88;;
16039;SDS011;8124;48.634;8.120;2022-07-26T05:02:17;43.55;;;39.05;;
16039;SDS011;8124;48.634;8.120;2022-07-26T05:07:21;43.38;;;38.85;;
16039;SDS011;8124;48.634;8.120;2022-07-26T05:12:25;44.08;;;39.38;;
16039;SDS011;8124;48.634;8.120;2022-07-26T05:17:28;44.65;;;39.03;;
16039;SDS011;8124;48.634;8.120;2022-07-26T05:22:35;44.45;;;39.90;;
16039;SDS011;8124;48.634;8.120;2022-07-26T05:27:39;43.75;;;39.10;;
16039;SDS011;8124;48.634;8.120;2022-07-26T05:32:42;44.60;;;40.00;;
16039;SDS011;8124;48.634;8.120;2022-07-26T05:37:45;43.50;;;38.80;;
16039;SDS011;8124;48.634;8.120;2022-07-26T05:42:50;44.63;;;39.92;;
16039;SDS011;8124;48.634;8.120;2022-07-26T05:47:53;42.78;;;38.28;;
16039;SDS011;8124;48.634;8.120;2022-07-26T05:52:56;43.03;;;38.35;;
16039;SDS011;8124;48.634;8.120;2022-07-26T05:58:00;43.28;;;38.72;;
16039;SDS011;8124;48.634;8.120;2022-07-26T06:03:03;43.47;;;38.88;;
16039;SDS011;8124;48.634;8.120;2022-07-26T06:08:21;42.83;;;38.30;;
16039;SDS011;8124;48.634;8.120;2022-07-26T06:13:26;44.40;;;38.63;;
16039;SDS011;8124;48.634;8.120;2022-07-26T06:18:29;42.53;;;38.10;;
16039;SDS011;8124;48.634;8.120;2022-07-26T06:23:32;44.45;;;38.70;;
16039;SDS011;8124;48.634;8.120;2022-07-26T06:28:36;43.05;;;38.53;;
16039;SDS011;8124;48.634;8.120;2022-07-26T06:33:40;42.72;;;38.33;;
16039;SDS011;8124;48.634;8.120;2022-07-26T06:38:43;43.17;;;38.65;;
16039;SDS011;8124;48.634;8.120;2022-07-26T06:43:50;42.50;;;38.05;;
16039;SDS011;8124;48.634;8.120;2022-07-26T06:48:53;42.70;;;38.22;;
16039;SDS011;8124;48.634;8.120;2022-07-26T06:53:57;42.80;;;38.28;;
16039;SDS011;8124;48.634;8.120;2022-07-26T06:59:02;43.00;;;38.40;;
16039;SDS011;8124;48.634;8.120;2022-07-26T07:04:09;42.95;;;38.45;;
16039;SDS011;8124;48.634;8.120;2022-07-26T07:09:13;42.88;;;38.17;;
16039;SDS011;8124;48.634;8.120;2022-07-26T07:14:17;42.67;;;38.15;;
16039;SDS011;8124;48.634;8.120;2022-07-26T07:19:20;42.72;;;38.33;;
16039;SDS011;8124;48.634;8.120;2022-07-26T07:24:23;42.70;;;38.25;;
16039;SDS011;8124;48.634;8.120;2022-07-26T07:29:28;43.25;;;38.75;;
16039;SDS011;8124;48.634;8.120;2022-07-26T07:34:32;42.58;;;38.08;;
16039;SDS011;8124;48.634;8.120;2022-07-26T07:39:40;42.60;;;38.20;;
16039;SDS011;8124;48.634;8.120;2022-07-26T07:44:44;42.92;;;38.42;;
16039;SDS011;8124;48.634;8.120;2022-07-26T07:49:48;43.03;;;38.53;;
16039;SDS011;8124;48.634;8.120;2022-07-26T07:54:50;43.35;;;38.40;;
16039;SDS011;8124;48.634;8.120;2022-07-26T08:00:15;42.42;;;37.92;;
16039;SDS011;8124;48.634;8.120;2022-07-26T08:05:27;42.67;;;38.17;;
16039;SDS011;8124;48.634;8.120;2022-07-26T08:10:30;43.63;;;39.08;;
16039;SDS011;8124;48.634;8.120;2022-07-26T08:15:35;43.13;;;38.63;;
16039;SDS011;8124;48.634;8.120;2022-07-26T08:20:39;42.40;;;38.00;;
16039;SDS011;8124;48.634;8.120;2022-07-26T08:25:42;42.78;;;38.20;;
16039;SDS011;8124;48.634;8.120;2022-07-26T08:30:58;43.38;;;38.88;;
16039;SDS011;8124;48.634;8.120;2022-07-26T08:36:01;43.13;;;38.42;;
16039;SDS011;8124;48.634;8.120;2022-07-26T08:41:05;42.90;;;38.47;;
16039;SDS011;8124;48.634;8.120;2022-07-26T08:46:09;42.88;;;38.47;;
16039;SDS011;8124;48.634;8.120;2022-07-26T08:51:12;43.45;;;38.88;;
16039;SDS011;8124;48.634;8.120;2022-07-26T08:56:16;43.22;;;38.72;;
16039;SDS011;8124;48.634;8.120;2022-07-26T09:01:20;43.92;;;38.83;;
16039;SDS011;8124;48.634;8.120;2022-07-26T09:06:23;42.78;;;38.38;;
16039;SDS011;8124;48.634;8.120;2022-07-26T09:11:30;42.90;;;38.40;;
16039;SDS011;8124;48.634;8.120;2022-07-26T09:16:35;44.65;;;38.38;;
16039;SDS011;8124;48.634;8.120;2022-07-26T09:21:40;44.88;;;40.17;;
16039;SDS011;8124;48.634;8.120;2022-07-26T09:26:53;43.35;;;38.85;;
16039;SDS011;8124;48.634;8.120;2022-07-26T09:32:11;43.13;;;38.67;;
16039;SDS011;8124;48.634;8.120;2022-07-26T09:37:17;43.22;;;38.78;;
16039;SDS011;8124;48.634;8.120;2022-07-26T09:42:33;43.20;;;38.60;;
16039;SDS011;8124;48.634;8.120;2022-07-26T09:47:38;43.38;;;38.78;;
16039;SDS011;8124;48.634;8.120;2022-07-26T09:52:55;43.90;;;39.40;;
16039;SDS011;8124;48.634;8.120;2022-07-26T09:58:09;43.25;;;38.65;;
16039;SDS011;8124;48.634;8.120;2022-07-26T10:03:15;43.22;;;38.63;;
16039;SDS011;8124;48.634;8.120;2022-07-26T10:08:18;42.70;;;38.20;;
16039;SDS011;8124;48.634;8.120;2022-07-26T10:13:21;43.10;;;38.67;;
16039;SDS011;8124;48.634;8.120;2022-07-26T10:18:42;42.78;;;38.38;;
16039;SDS011;8124;48.634;8.120;2022-07-26T10:23:47;42.80;;;38.40;;
16039;SDS011;8124;48.634;8.120;2022-07-26T10:28:51;42.92;;;38.53;;
16039;SDS011;8124;48.634;8.120;2022-07-26T10:33:56;42.75;;;38.35;;
16039;SDS011;8124;48.634;8.120;2022-07-26T10:39:08;43.15;;;38.65;;
16039;SDS011;8124;48.634;8.120;2022-07-26T10:44:14;43.35;;;38.85;;
16039;SDS011;8124;48.634;8.120;2022-07-26T10:49:20;43.25;;;38.75;;
16039;SDS011;8124;48.634;8.120;2022-07-26T10:54:30;42.97;;;38.55;;
16039;SDS011;8124;48.634;8.120;2022-07-26T10:59:33;43.45;;;38.85;;
16039;SDS011;8124;48.634;8.120;2022-07-26T11:04:59;43.20;;;38.63;;
16039;SDS011;8124;48.634;8.120;2022-07-26T11:10:02;43.35;;;38.85;;
16039;SDS011;8124;48.634;8.120;2022-07-26T11:15:12;43.03;;;38.63;;
16039;SDS011;8124;48.634;8.120;2022-07-26T11:20:24;43.00;;;38.58;;
16039;SDS011;8124;48.634;8.120;2022-07-26T11:25:30;42.70;;;38.35;;
16039;SDS011;8124;48.634;8.120;2022-07-26T11:30:33;43.58;;;39.00;;
16039;SDS011;8124;48.634;8.120;2022-07-26T11:35:49;43.45;;;38.85;;
16039;SDS011;8124;48.634;8.120;2022-07-26T11:40:52;43.20;;;38.80;;
16039;SDS011;8124;48.634;8.120;2022-07-26T11:45:56;43.42;;;38.92;;
16039;SDS011;8124;48.634;8.120;2022-07-26T11:51:10;43.13;;;38.72;;
16039;SDS011;8124;48.634;8.120;2022-07-26T11:56:15;43.22;;;38.72;;
16039;SDS011;8124;48.634;8.120;2022-07-26T12:01:21;43.22;;;38.83;;
16039;SDS011;8124;48.634;8.120;2022-07-26T12:06:27;43.85;;;39.25;;
16039;SDS011;8124;48.634;8.120;2022-07-26T12:11:35;43.13;;;38.72;;
16039;SDS011;8124;48.634;8.120;2022-07-26T12:16:41;43.65;;;39.08;;
16039;SDS011;8124;48.634;8.120;2022-07-26T12:21:48;43.83;;;39.33;;
16039;SDS011;8124;48.634;8.120;2022-07-26T12:27:02;43.58;;;39.13;;
16039;SDS011;8124;48.634;8.120;2022-07-26T12:32:08;44.67;;;39.90;;
16039;SDS011;8124;48.634;8.120;2022-07-26T12:37:15;44.03;;;39.42;;
16039;SDS011;8124;48.634;8.120;2022-07-26T12:42:19;43.95;;;39.40;;
16039;SDS011;8124;48.634;8.120;2022-07-26T12:47:34;44.05;;;39.53;;
16039;SDS011;8124;48.634;8.120;2022-07-26T12:52:38;44.63;;;39.97;;
16039;SDS011;8124;48.634;8.120;2022-07-26T12:57:42;43.55;;;39.10;;
16039;SDS011;8124;48.634;8.120;2022-07-26T13:02:48;44.20;;;39.70;;
16039;SDS011;8124;48.634;8.120;2022-07-26T13:07:52;43.78;;;39.17;;
16039;SDS011;8124;48.634;8.120;2022-07-26T13:12:55;43.65;;;39.05;;
16039;SDS011;8124;48.634;8.120;2022-07-26T13:17:58;43.58;;;39.03;;
16039;SDS011;8124;48.634;8.120;2022-07-26T13:23:03;43.90;;;39.22;;
16039;SDS011;8124;48.634;8.120;2022-07-26T13:28:11;43.55;;;39.00;;
16039;SDS011;8124;48.634;8.120;2022-07-26T13:33:15;44.13;;;39.65;;
16039;SDS011;8124;48.634;8.120;2022-07-26T13:38:20;44.28;;;39.80;;
16039;SDS011;8124;48.634;8.120;2022-07-26T13:43:23;44.30;;;39.80;;
16039;SDS011;8124;48.634;8.120;2022-07-26T13:48:26;44.28;;;39.85;;
16039;SDS011;8124;48.634;8.120;2022-07-26T13:53:30;44.05;;;39.55;;
16039;SDS011;8124;48.634;8.120;2022-07-26T13:58:33;43.95;;;39.45;;
16039;SDS011;8124;48.634;8.120;2022-07-26T14:03:36;43.72;;;39.25;;
16039;SDS011;8124;48.634;8.120;2022-07-26T14:08:41;43.92;;;39.42;;
16039;SDS011;8124;48.634;8.120;2022-07-26T14:13:44;43.65;;;39.25;;
16039;SDS011;8124;48.634;8.120;2022-07-26T14:18:47;44.30;;;39.80;;
16039;SDS011;8124;48.634;8.120;2022-07-26T14:23:56;44.58;;;40.00;;
16039;SDS011;8124;48.634;8.120;2022-07-26T14:28:59;44.03;;;39.33;;
16039;SDS011;8124;48.634;8.120;2022-07-26T14:34:02;43.63;;;39.10;;
16039;SDS011;8124;48.634;8.120;2022-07-26T14:39:06;44.35;;;39.75;;
16039;SDS011;8124;48.634;8.120;2022-07-26T14:44:10;43.28;;;38.88;;
16039;SDS011;8124;48.634;8.120;2022-07-26T14:49:13;44.15;;;39.67;;
16039;SDS011;8124;48.634;8.120;2022-07-26T14:54:18;43.80;;;39.30;;
16039;SDS011;8124;48.634;8.120;2022-07-26T14:59:21;43.65;;;39.25;;
16039;SDS011;8124;48.634;8.120;2022-07-26T15:04:24;44.28;;;39.58;;
16039;SDS011;8124;48.634;8.120;2022-07-26T15:09:30;43.88;;;39.45;;
16039;SDS011;8124;48.634;8.120;2022-07-26T15:14:33;44.45;;;39.75;;
16039;SDS011;8124;48.634;8.120;2022-07-26T15:19:36;43.85;;;39.25;;
16039;SDS011;8124;48.634;8.120;2022-07-26T15:24:41;43.35;;;38.95;;
16039;SDS011;8124;48.634;8.120;2022-07-26T15:29:46;43.95;;;39.45;;
16039;SDS011;8124;48.634;8.120;2022-07-26T15:34:50;44.20;;;39.70;;
16039;SDS011;8124;48.634;8.120;2022-07-26T15:39:55;43.88;;;39.38;;
16039;SDS011;8124;48.634;8.120;2022-07-26T15:44:58;43.92;;;39.42;;
16039;SDS011;8124;48.634;8.120;2022-07-26T15:50:12;44.30;;;39.78;;
16039;SDS011;8124;48.634;8.120;2022-07-26T15:55:18;43.97;;;39.47;;
16039;SDS011;8124;48.634;8.120;2022-07-26T16:00:21;44.85;;;39.55;;
16039;SDS011;8124;48.634;8.120;2022-07-26T16:05:24;44.08;;;39.58;;
16039;SDS011;8124;48.634;8.120;2022-07-26T16:10:28;43.75;;;39.35;;
16039;SDS011;8124;48.634;8.120;2022-07-26T16:15:31;43.78;;;39.28;;
16039;SDS011;8124;48.634;8.120;2022-07-26T16:20:34;44.47;;;39.88;;
16039;SDS011;8124;48.634;8.120;2022-07-26T16:25:39;43.95;;;39.50;;
16039;SDS011;8124;48.634;8.120;2022-07-26T16:30:42;44.25;;;39.75;;
16039;SDS011;8124;48.634;8.120;2022-07-26T16:35:45;44.20;;;39.50;;
16039;SDS011;8124;48.634;8.120;2022-07-26T16:40:49;44.45;;;39.60;;
16039;SDS011;8124;48.634;8.120;2022-07-26T16:45:52;44.10;;;39.53;;
16039;SDS011;8124;48.634;8.120;2022-07-26T16:50:55;44.15;;;39.75;;
16039;SDS011;8124;48.634;8.120;2022-07-26T16:56:00;43.97;;;39.53;;
16039;SDS011;8124;48.634;8.120;2022-07-26T17:01:03;44.53;;;39.92;;
16039;SDS011;8124;48.634;8.120;2022-07-26T17:06:06;44.45;;;39.83;;
16039;SDS011;8124;48.634;8.120;2022-07-26T17:11:11;43.92;;;39.53;;
16039;SDS011;8124;48.634;8.120;2022-07-26T17:16:14;44.58;;;39.75;;
16039;SDS011;8124;48.634;8.120;2022-07-26T17:21:24;44.28;;;39.67;;
16039;SDS011;8124;48.634;8.120;2022-07-26T17:26:29;44.28;;;39.75;;
16039;SDS011;8124;48.634;8.120;2022-07-26T17:31:36;44.35;;;39.65;;
16039;SDS011;8124;48.634;8.120;2022-07-26T17:36:39;43.97;;;39.58;;
16039;SDS011;8124;48.634;8.120;2022-07-26T17:41:46;44.17;;;39.55;;
16039;SDS011;8124;48.634;8.120;2022-07-26T17:46:49;45.03;;;39.70;;
16039;SDS011;8124;48.634;8.120;2022-07-26T17:51:57;43.92;;;39.35;;
16039;SDS011;8124;48.634;8.120;2022-07-26T17:57:01;44.53;;;40.08;;
16039;SDS011;8124;48.634;8.120;2022-07-26T18:02:06;43.83;;;39.42;;
16039;SDS011;8124;48.634;8.120;2022-07-26T18:07:09;43.97;;;39.47;;
16039;SDS011;8124;48.634;8.120;2022-07-26T18:12:14;44.42;;;39.72;;
16039;SDS011;8124;48.634;8.120;2022-07-26T18:17:17;44.33;;;39.75;;
16039;SDS011;8124;48.634;8.120;2022-07-26T18:22:20;44.10;;;39.50;;
16039;SDS011;8124;48.634;8.120;2022-07-26T18:27:25;44.15;;;39.70;;
16039;SDS011;8124;48.634;8.120;2022-07-26T18:32:29;44.30;;;39.80;;
16039;SDS011;8124;48.634;8.120;2022-07-26T18:37:32;44.15;;;39.65;;
16039;SDS011;8124;48.634;8.120;2022-07-26T18:42:36;43.92;;;39.53;;
16039;SDS011;8124;48.634;8.120;2022-07-26T18:47:39;44.42;;;39.83;;
16039;SDS011;8124;48.634;8.120;2022-07-26T18:52:42;44.90;;;40.10;;
16039;SDS011;8124;48.634;8.120;2022-07-26T18:57:49;44.05;;;39.63;;
16039;SDS011;8124;48.634;8.120;2022-07-26T19:02:52;44.28;;;39.63;;
16039;SDS011;8124;48.634;8.120;2022-07-26T19:07:55;43.63;;;39.22;;
16039;SDS011;8124;48.634;8.120;2022-07-26T19:12:59;44.17;;;39.47;;
16039;SDS011;8124;48.634;8.120;2022-07-26T19:18:09;44.15;;;39.65;;
16039;SDS011;8124;48.634;8.120;2022-07-26T19:23:14;44.25;;;39.60;;
16039;SDS011;8124;48.634;8.120;2022-07-26T19:28:18;44.35;;;39.85;;
16039;SDS011;8124;48.634;8.120;2022-07-26T19:33:21;44.60;;;39.90;;
16039;SDS011;8124;48.634;8.120;2022-07-26T19:38:24;45.53;;;40.90;;
16039;SDS011;8124;48.634;8.120;2022-07-26T19:43:28;44.35;;;39.80;;
16039;SDS011;8124;48.634;8.120;2022-07-26T19:48:31;44.58;;;40.08;;
16039;SDS011;8124;48.634;8.120;2022-07-26T19:53:34;46.30;;;41.70;;
16039;SDS011;8124;48.634;8.120;2022-07-26T19:58:39;43.95;;;39.47;;
16039;SDS011;8124;48.634;8.120;2022-07-26T20:03:42;44.35;;;39.75;;
16039;SDS011;8124;48.634;8.120;2022-07-26T20:08:45;44.90;;;39.95;;
16039;SDS011;8124;48.634;8.120;2022-07-26T20:13:52;44.05;;;39.60;;
16039;SDS011;8124;48.634;8.120;2022-07-26T20:18:55;44.33;;;39.83;;
16039;SDS011;8124;48.634;8.120;2022-07-26T20:23:58;44.30;;;39.70;;
16039;SDS011;8124;48.634;8.120;2022-07-26T20:29:03;44.00;;;39.50;;
16039;SDS011;8124;48.634;8.120;2022-07-26T20:34:07;44.05;;;39.65;;
16039;SDS011;8124;48.634;8.120;2022-07-26T20:39:10;44.95;;;39.95;;
16039;SDS011;8124;48.634;8.120;2022-07-26T20:44:15;44.70;;;40.00;;
16039;SDS011;8124;48.634;8.120;2022-07-26T20:49:22;43.88;;;39.38;;
16039;SDS011;8124;48.634;8.120;2022-07-26T20:54:28;44.22;;;39.75;;
16039;SDS011;8124;48.634;8.120;2022-07-26T20:59:32;43.75;;;39.28;;
16039;SDS011;8124;48.634;8.120;2022-07-26T21:04:36;43.78;;;39.33;;
16039;SDS011;8124;48.634;8.120;2022-07-26T21:09:39;44.03;;;39.42;;
16039;SDS011;8124;48.634;8.120;2022-07-26T21:14:43;43.65;;;39.25;;
16039;SDS011;8124;48.634;8.120;2022-07-26T21:19:46;44.25;;;39.70;;
16039;SDS011;8124;48.634;8.120;2022-07-26T21:24:49;44.08;;;39.30;;
16039;SDS011;8124;48.634;8.120;2022-07-26T21:29:53;43.88;;;39.25;;
16039;SDS011;8124;48.634;8.120;2022-07-26T21:34:56;43.95;;;39.45;;
16039;SDS011;8124;48.634;8.120;2022-07-26T21:39:59;43.67;;;39.15;;
16039;SDS011;8124;48.634;8.120;2022-07-26T21:45:04;43.65;;;39.05;;
16039;SDS011;8124;48.634;8.120;2022-07-26T21:50:08;43.53;;;39.03;;
16039;SDS011;8124;48.634;8.120;2022-07-26T21:55:12;43.35;;;38.85;;
16039;SDS011;8124;48.634;8.120;2022-07-26T22:00:19;43.78;;;39.28;;
16039;SDS011;8124;48.634;8.120;2022-07-26T22:05:22;43.90;;;39.35;;
16039;SDS011;8124;48.634;8.120;2022-07-26T22:10:39;44.15;;;39.45;;
16039;SDS011;8124;48.634;8.120;2022-07-26T22:15:46;43.38;;;38.97;;
16039;SDS011;8124;48.634;8.120;2022-07-26T22:20:49;43.25;;;38.85;;
16039;SDS011;8124;48.634;8.120;2022-07-26T22:25:52;44.13;;;39.13;;
16039;SDS011;8124;48.634;8.120;2022-07-26T22:30:57;43.88;;;39.38;;
16039;SDS011;8124;48.634;8.120;2022-07-26T22:36:00;43.25;;;38.85;;
16039;SDS011;8124;48.634;8.120;2022-07-26T22:41:03;43.95;;;39.35;;
16039;SDS011;8124;48.634;8.120;2022-07-26T22:46:07;43.72;;;39.03;;
16039;SDS011;8124;48.634;8.120;2022-07-26T22:51:10;43.83;;;39.28;;
16039;SDS011;8124;48.634;8.120;2022-07-26T22:56:13;43.38;;;38.67;;
16039;SDS011;8124;48.634;8.120;2022-07-26T23:01:21;43.75;;;39.25;;
16039;SDS011;8124;48.634;8.120;2022-07-26T23:06:24;44.90;;;38.95;;
16039;SDS011;8124;48.634;8.120;2022-07-26T23:11:32;43.25;;;38.85;;
16039;SDS011;8124;48.634;8.120;2022-07-26T23:16:37;43.25;;;38.75;;
16039;SDS011;8124;48.634;8.120;2022-07-26T23:21:40;43.25;;;38.85;;
16039;SDS011;8124;48.634;8.120;2022-07-26T23:26:43;43.35;;;38.85;;
16039;SDS011;8124;48.634;8.120;2022-07-26T23:31:47;43.95;;;39.33;;
16039;SDS011;8124;48.634;8.120;2022-07-26T23:36:50;44.25;;;39.55;;
16039;SDS011;8124;48.634;8.120;2022-07-26T23:41:53;43.67;;;39.17;;
16039;SDS011;8124;48.634;8.120;2022-07-26T23:46:57;42.95;;;38.53;;
16039;SDS011;8124;48.634;8.120;2022-07-26T23:52:01;43.42;;;38.83;;
16039;SDS011;8124;48.634;8.120;2022-07-26T23:57:04;44.05;;;39.20;;
